createdAt,value
2022-11-02T00:01:21.774Z,9.10
2022-11-02T00:04:07.578Z,4.22
2022-11-02T00:06:53.264Z,10.80
2022-11-02T00:09:38.577Z,4.55
2022-11-02T00:12:24.026Z,8.57
2022-11-02T00:15:09.873Z,2.85
2022-11-02T00:18:00.719Z,14.85
2022-11-02T00:20:46.421Z,1.80
2022-11-02T00:23:32.636Z,5.60
2022-11-02T00:26:18.926Z,8.00
2022-11-02T00:29:06.197Z,6.68
2022-11-02T00:31:51.644Z,6.90
2022-11-02T00:34:36.909Z,8.82
2022-11-02T00:37:22.233Z,16.17
2022-11-02T00:40:07.971Z,15.40
2022-11-02T00:42:53.935Z,5.18
2022-11-02T00:45:39.354Z,8.27
2022-11-02T00:48:24.867Z,6.20
2022-11-02T00:51:11.856Z,5.30
2022-11-02T00:54:00.209Z,5.85
2022-11-02T00:56:47.102Z,4.85
2022-11-02T00:59:32.428Z,6.35
2022-11-02T01:02:17.992Z,6.45
2022-11-02T01:05:04.828Z,4.18
2022-11-02T01:07:50.488Z,5.50
2022-11-02T01:10:35.839Z,4.70
2022-11-02T01:13:21.278Z,5.78
2022-11-02T01:16:07.252Z,9.38
2022-11-02T01:18:57.465Z,4.75
2022-11-02T01:21:42.923Z,5.45
2022-11-02T01:24:28.218Z,4.45
2022-11-02T01:27:13.524Z,6.53
2022-11-02T01:29:58.837Z,7.80
2022-11-02T01:32:43.993Z,9.43
2022-11-02T01:35:29.498Z,1.67
2022-11-02T01:38:14.696Z,7.47
2022-11-02T01:41:00.496Z,5.60
2022-11-02T01:43:49.243Z,3.25
2022-11-02T01:46:41.457Z,3.17
2022-11-02T01:49:28.894Z,6.07
2022-11-02T01:52:31.257Z,6.28
2022-11-02T01:55:21.320Z,3.72
2022-11-02T01:58:12.420Z,3.80
2022-11-02T02:00:57.866Z,3.30
2022-11-02T02:03:44.949Z,4.38
2022-11-02T02:06:32.689Z,7.43
2022-11-02T02:09:19.687Z,3.03
2022-11-02T02:12:06.388Z,2.78
2022-11-02T02:14:53.693Z,9.05
2022-11-02T02:17:53.586Z,6.82
2022-11-02T02:21:20.538Z,3.72
2022-11-02T02:24:21.678Z,4.82
2022-11-02T02:27:24.020Z,5.43
2022-11-02T02:30:11.101Z,4.85
2022-11-02T02:33:04.945Z,7.15
2022-11-02T02:35:59.214Z,4.03
2022-11-02T02:38:58.779Z,2.90
2022-11-02T02:41:54.518Z,4.20
2022-11-02T02:44:45.296Z,8.05
2022-11-02T02:47:33.651Z,5.00
2022-11-02T02:50:27.765Z,1.30
2022-11-02T02:53:16.108Z,8.13
2022-11-02T02:56:04.502Z,11.73
2022-11-02T02:59:00.607Z,6.22
2022-11-02T03:01:47.453Z,5.72
2022-11-02T03:04:33.477Z,4.18
2022-11-02T03:07:33.802Z,7.15
2022-11-02T03:10:51.783Z,4.20
2022-11-02T03:13:52.745Z,3.92
2022-11-02T03:17:13.975Z,4.22
2022-11-02T03:20:04.966Z,3.63
2022-11-02T03:23:06.164Z,9.68
2022-11-02T03:26:07.964Z,4.85
2022-11-02T03:29:20.019Z,2.25
2022-11-02T03:32:24.721Z,3.58
2022-11-02T03:35:31.218Z,3.47
2022-11-02T03:38:24.239Z,1.20
2022-11-02T03:41:13.336Z,5.95
2022-11-02T03:44:07.628Z,12.60
2022-11-02T03:47:02.576Z,2.83
2022-11-02T03:49:52.129Z,3.58
2022-11-02T03:52:41.946Z,3.67
2022-11-02T03:55:39.163Z,2.97
2022-11-02T03:58:24.812Z,10.23
2022-11-02T04:01:12.398Z,3.33
2022-11-02T04:03:58.461Z,1.42
2022-11-02T04:06:47.399Z,2.80
2022-11-02T04:09:32.561Z,12.68
2022-11-02T04:12:36.547Z,4.97
2022-11-02T04:15:22.334Z,3.10
2022-11-02T04:18:26.460Z,4.25
2022-11-02T04:21:12.127Z,8.35
2022-11-02T04:24:16.729Z,7.60
2022-11-02T04:27:02.272Z,12.45
2022-11-02T04:29:47.898Z,8.18
2022-11-02T04:33:03.026Z,3.60
2022-11-02T04:35:52.470Z,5.00
2022-11-02T04:38:42.159Z,11.90
2022-11-02T04:41:42.027Z,11.63
2022-11-02T04:44:41.776Z,5.95
2022-11-02T04:47:36.252Z,4.68
2022-11-02T04:50:21.544Z,0.82
2022-11-02T04:53:07.800Z,5.32
2022-11-02T04:55:54.361Z,9.95
2022-11-02T04:58:40.731Z,9.25
2022-11-02T05:01:29.409Z,7.68
2022-11-02T05:04:17.262Z,6.40
2022-11-02T05:07:06.566Z,9.63
2022-11-02T05:09:54.452Z,8.45
2022-11-02T05:12:42.218Z,4.57
2022-11-02T05:15:28.162Z,8.05
2022-11-02T05:18:18.588Z,13.00
2022-11-02T05:21:05.689Z,5.88
2022-11-02T05:23:51.418Z,7.40
2022-11-02T05:26:36.972Z,5.00
2022-11-02T05:29:23.173Z,3.13
2022-11-02T05:32:10.215Z,4.22
2022-11-02T05:34:56.651Z,10.27
2022-11-02T05:37:42.380Z,4.60
2022-11-02T05:40:27.669Z,9.93
2022-11-02T05:43:13.372Z,8.80
2022-11-02T05:46:01.484Z,4.65
2022-11-02T05:48:46.939Z,10.68
2022-11-02T05:51:32.334Z,3.40
2022-11-02T05:54:18.315Z,5.55
2022-11-02T05:57:03.910Z,6.32
2022-11-02T05:59:49.668Z,9.15
2022-11-02T06:02:35.430Z,4.95
2022-11-02T06:05:20.831Z,7.80
2022-11-02T06:08:06.748Z,9.45
2022-11-02T06:10:52.229Z,7.90
2022-11-02T06:13:37.700Z,9.43
2022-11-02T06:16:23.575Z,5.65
2022-11-02T06:19:09.033Z,6.57
2022-11-02T06:21:54.384Z,6.00
2022-11-02T06:24:39.630Z,9.40
2022-11-02T06:27:24.905Z,10.98
2022-11-02T06:30:11.132Z,2.08
2022-11-02T06:32:56.604Z,4.88
2022-11-02T06:35:46.277Z,3.95
2022-11-02T06:38:31.484Z,10.52
2022-11-02T06:41:16.920Z,11.60
2022-11-02T06:44:02.519Z,10.57
2022-11-02T06:46:48.005Z,6.45
2022-11-02T06:49:33.473Z,3.72
2022-11-02T06:52:18.712Z,7.65
2022-11-02T06:55:04.531Z,16.05
2022-11-02T06:57:50.203Z,6.45
2022-11-02T07:00:35.522Z,4.45
2022-11-02T07:03:20.875Z,7.10
2022-11-02T07:06:11.150Z,7.28
2022-11-02T07:08:59.577Z,10.40
2022-11-02T07:11:45.230Z,10.00
2022-11-02T07:14:30.690Z,7.90
2022-11-02T07:17:16.089Z,14.77
2022-11-02T07:20:01.441Z,19.58
2022-11-02T07:22:54.490Z,8.40
2022-11-02T07:25:39.928Z,13.68
2022-11-02T07:28:25.222Z,15.07
2022-11-02T07:31:10.731Z,11.57
2022-11-02T07:33:56.001Z,15.32
2022-11-02T07:36:41.375Z,13.00
2022-11-02T07:39:26.663Z,7.63
2022-11-02T07:42:12.104Z,24.50
2022-11-02T07:45:01.890Z,16.90
2022-11-02T07:47:48.502Z,19.92
2022-11-02T07:50:34.017Z,14.55
2022-11-02T07:53:19.713Z,21.02
2022-11-02T07:56:05.764Z,22.08
2022-11-02T07:58:51.341Z,24.13
2022-11-02T08:01:36.745Z,17.83
2022-11-02T08:07:13.238Z,3.80
2022-11-02T08:09:58.952Z,16.23
2022-11-02T08:12:44.763Z,15.80
2022-11-02T08:15:30.545Z,21.65
2022-11-02T08:18:18.261Z,11.13
2022-11-02T08:21:04.517Z,12.15
2022-11-02T08:23:53.542Z,10.35
2022-11-02T08:26:44.162Z,9.68
2022-11-02T08:29:32.021Z,10.25
2022-11-02T08:32:17.440Z,8.55
2022-11-02T08:35:03.256Z,4.50
2022-11-02T08:37:56.107Z,9.95
2022-11-02T08:43:27.129Z,14.40
2022-11-02T08:46:15.355Z,6.10
2022-11-02T08:49:02.282Z,10.43
2022-11-02T08:51:48.232Z,5.38
2022-11-02T08:54:33.959Z,19.05
2022-11-02T08:57:19.397Z,8.88
2022-11-02T09:00:06.520Z,15.68
2022-11-02T09:03:09.834Z,10.02
2022-11-02T09:06:00.530Z,13.05
2022-11-02T09:08:45.814Z,10.88
2022-11-02T09:11:31.315Z,9.13
2022-11-02T09:14:16.800Z,11.98
2022-11-02T09:17:02.429Z,18.00
2022-11-02T09:19:47.823Z,10.38
2022-11-02T09:22:33.292Z,15.80
2022-11-02T09:25:19.282Z,20.02
2022-11-02T09:28:04.682Z,18.80
2022-11-02T09:30:50.346Z,10.13
2022-11-02T09:33:36.327Z,13.27
2022-11-02T09:36:21.719Z,11.25
2022-11-02T09:39:07.468Z,12.55
2022-11-02T09:42:09.794Z,10.77
2022-11-02T09:45:16.415Z,5.10
2022-11-02T09:48:44.412Z,4.45
2022-11-02T09:51:37.376Z,4.15
2022-11-02T09:54:46.073Z,12.82
2022-11-02T09:57:33.511Z,5.50
2022-11-02T10:00:18.977Z,8.35
2022-11-02T10:03:43.211Z,15.13
2022-11-02T10:06:30.493Z,9.55
2022-11-02T10:09:25.307Z,7.45
2022-11-02T10:12:41.384Z,12.55
2022-11-02T10:15:38.373Z,4.45
2022-11-02T10:18:27.370Z,6.85
2022-11-02T10:21:16.306Z,6.63
2022-11-02T10:24:42.833Z,3.45
2022-11-02T10:27:37.204Z,8.38
2022-11-02T10:30:22.750Z,8.38
2022-11-02T10:33:15.543Z,7.72
2022-11-02T10:36:19.213Z,5.63
2022-11-02T10:39:11.318Z,5.50
2022-11-02T10:42:15.543Z,10.57
2022-11-02T10:45:13.787Z,9.82
2022-11-02T10:48:11.120Z,4.25
2022-11-02T10:51:09.763Z,6.80
2022-11-02T10:53:55.749Z,8.75
2022-11-02T10:56:43.392Z,10.27
2022-11-02T10:59:29.855Z,6.70
2022-11-02T11:02:15.709Z,6.07
2022-11-02T11:05:14.453Z,4.40
2022-11-02T11:08:01.168Z,4.63
2022-11-02T11:10:47.139Z,4.93
2022-11-02T11:16:41.852Z,5.63
2022-11-02T11:19:42.375Z,9.35
2022-11-02T11:22:35.439Z,11.25
2022-11-02T11:25:27.924Z,5.50
2022-11-02T11:28:44.997Z,5.47
2022-11-02T11:31:31.081Z,10.05
2022-11-02T11:34:27.205Z,6.00
2022-11-02T11:37:15.753Z,6.20
2022-11-02T11:40:04.981Z,4.57
2022-11-02T11:42:56.380Z,5.63
2022-11-02T11:46:17.374Z,6.65
2022-11-02T11:49:02.785Z,5.18
2022-11-02T11:51:55.246Z,5.50
2022-11-02T11:54:40.558Z,2.63
2022-11-02T11:57:31.704Z,6.32
2022-11-02T12:00:28.936Z,4.90
2022-11-02T12:03:14.636Z,6.65
2022-11-02T12:06:29.272Z,3.33
2022-11-02T12:09:34.174Z,9.45
2022-11-02T12:12:26.514Z,7.07
2022-11-02T12:15:30.266Z,6.70
2022-11-02T12:18:43.085Z,6.53
2022-11-02T12:24:48.377Z,4.50
2022-11-02T12:27:47.594Z,2.83
2022-11-02T12:31:10.709Z,3.70
2022-11-02T12:34:17.829Z,1.60
2022-11-02T12:40:49.852Z,3.92
2022-11-02T12:43:49.105Z,3.45
2022-11-02T12:46:52.124Z,4.18
2022-11-02T12:50:05.888Z,2.92
2022-11-02T12:53:22.604Z,4.90
2022-11-02T12:56:14.481Z,3.22
2022-11-02T12:59:00.835Z,1.80
2022-11-02T13:01:52.883Z,5.10
2022-11-02T13:04:51.176Z,9.15
2022-11-02T13:07:47.206Z,6.03
2022-11-02T13:10:52.231Z,6.43
2022-11-02T13:13:45.300Z,5.95
2022-11-02T13:17:02.113Z,11.07
2022-11-02T13:19:53.248Z,10.02
2022-11-02T13:22:41.201Z,9.85
2022-11-02T13:25:33.377Z,12.18
2022-11-02T13:28:31.054Z,20.95
2022-11-02T13:31:39.421Z,16.02
2022-11-02T13:34:41.389Z,14.02
2022-11-02T13:37:34.850Z,11.52
2022-11-02T13:40:27.023Z,8.07
2022-11-02T13:43:18.515Z,18.52
2022-11-02T13:46:30.078Z,23.63
2022-11-02T13:49:18.457Z,13.73
2022-11-02T13:52:13.858Z,22.08
2022-11-02T13:55:03.233Z,26.80
2022-11-02T13:57:59.894Z,12.98
2022-11-02T14:00:46.716Z,26.45
2022-11-02T14:03:58.848Z,17.80
2022-11-02T14:07:01.304Z,14.48
2022-11-02T14:09:47.609Z,22.30
2022-11-02T14:12:46.623Z,21.52
2022-11-02T14:15:31.981Z,25.20
2022-11-02T14:18:30.884Z,21.73
2022-11-02T14:21:44.624Z,34.47
2022-11-02T14:24:39.789Z,19.55
2022-11-02T14:27:25.241Z,24.30
2022-11-02T14:30:42.155Z,22.00
2022-11-02T14:33:49.128Z,25.88
2022-11-02T14:36:37.551Z,23.50
2022-11-02T14:39:26.096Z,23.52
2022-11-02T14:42:43.986Z,34.60
2022-11-02T14:45:53.985Z,23.63
2022-11-02T14:48:53.987Z,25.60
2022-11-02T14:51:40.744Z,34.45
2022-11-02T14:54:27.966Z,18.45
2022-11-02T14:57:22.648Z,20.38
2022-11-02T15:00:22.320Z,17.30
2022-11-02T15:03:24.262Z,27.92
2022-11-02T15:06:21.412Z,26.55
2022-11-02T15:09:10.724Z,23.73
2022-11-02T15:12:02.722Z,18.42
2022-11-02T15:14:48.826Z,25.75
2022-11-02T15:17:34.063Z,17.30
2022-11-02T15:20:28.745Z,19.85
2022-11-02T15:23:30.525Z,21.45
2022-11-02T15:26:24.230Z,23.90
2022-11-02T15:29:37.024Z,36.35
2022-11-02T15:32:26.629Z,23.15
2022-11-02T15:35:19.802Z,36.08
2022-11-02T15:38:30.425Z,25.58
2022-11-02T15:41:55.030Z,20.60
2022-11-02T15:45:34.180Z,16.73
2022-11-02T15:48:31.247Z,19.02
2022-11-02T15:51:28.608Z,16.30
2022-11-02T15:54:35.700Z,16.42
2022-11-02T15:57:52.101Z,23.15
2022-11-02T16:00:37.696Z,18.90
2022-11-02T16:03:23.385Z,21.08
2022-11-02T16:06:09.518Z,20.33
2022-11-02T16:09:00.239Z,15.52
2022-11-02T16:12:00.196Z,27.88
2022-11-02T16:15:14.556Z,17.42
2022-11-02T16:18:00.095Z,14.82
2022-11-02T16:20:45.938Z,21.05
2022-11-02T16:23:35.369Z,21.20
2022-11-02T16:26:24.030Z,15.80
2022-11-02T16:29:11.978Z,16.35
2022-11-02T16:31:58.188Z,15.13
2022-11-02T16:34:44.596Z,27.05
2022-11-02T16:37:30.296Z,15.85
2022-11-02T16:40:20.668Z,18.23
2022-11-02T16:43:07.552Z,25.48
2022-11-02T16:46:00.494Z,17.63
2022-11-02T16:49:13.183Z,27.85
2022-11-02T16:52:01.307Z,19.38
2022-11-02T16:54:47.110Z,24.02
2022-11-02T16:57:44.276Z,21.85
2022-11-02T17:00:29.750Z,11.82
2022-11-02T17:03:16.844Z,13.98
2022-11-02T17:06:06.730Z,8.82
2022-11-02T17:08:55.314Z,10.32
2022-11-02T17:11:43.274Z,8.07
2022-11-02T17:14:29.219Z,7.35
2022-11-02T17:17:23.667Z,14.45
2022-11-02T17:20:14.766Z,16.23
2022-11-02T17:23:01.654Z,13.77
2022-11-02T17:25:47.271Z,23.95
2022-11-02T17:28:47.275Z,14.35
2022-11-02T17:31:42.977Z,17.55
2022-11-02T17:34:28.874Z,15.05
2022-11-02T17:37:26.727Z,18.85
2022-11-02T17:40:13.236Z,19.13
2022-11-02T17:42:58.828Z,15.38
2022-11-02T17:45:44.276Z,12.75
2022-11-02T17:48:29.591Z,13.98
2022-11-02T17:51:16.017Z,22.80
2022-11-02T17:54:02.073Z,11.63
2022-11-02T17:56:47.708Z,8.07
2022-11-02T17:59:33.091Z,12.43
2022-11-02T18:02:18.362Z,13.43
2022-11-02T18:05:03.971Z,11.82
2022-11-02T18:07:50.271Z,13.15
2022-11-02T18:10:44.174Z,18.80
2022-11-02T18:13:29.757Z,17.60
2022-11-02T18:16:16.510Z,11.18
2022-11-02T18:19:02.074Z,10.13
2022-11-02T18:21:47.804Z,9.48
2022-11-02T18:24:33.707Z,7.43
2022-11-02T18:27:19.238Z,8.07
2022-11-02T18:30:06.587Z,10.73
2022-11-02T18:32:53.281Z,8.15
2022-11-02T18:35:38.585Z,9.70
2022-11-02T18:38:23.921Z,7.63
2022-11-02T18:41:29.856Z,7.72
2022-11-02T18:44:15.847Z,11.75
2022-11-02T18:47:01.974Z,6.82
2022-11-02T18:49:47.765Z,9.98
2022-11-02T18:52:33.833Z,12.77
2022-11-02T18:55:19.718Z,5.38
2022-11-02T18:58:05.636Z,4.75
2022-11-02T19:00:50.962Z,7.35
2022-11-02T19:03:37.271Z,4.15
2022-11-02T19:06:42.563Z,9.30
2022-11-02T19:09:31.635Z,7.00
2022-11-02T19:12:22.074Z,10.00
2022-11-02T19:15:08.286Z,11.02
2022-11-02T19:17:53.806Z,3.63
2022-11-02T19:20:39.393Z,6.38
2022-11-02T19:23:25.802Z,9.95
2022-11-02T19:26:11.846Z,3.28
2022-11-02T19:29:01.396Z,7.93
2022-11-02T19:31:50.958Z,7.57
2022-11-02T19:34:38.355Z,10.50
2022-11-02T19:37:24.241Z,7.47
2022-11-02T19:40:10.610Z,5.35
2022-11-02T19:42:56.345Z,2.17
2022-11-02T19:45:42.133Z,11.40
2022-11-02T19:48:28.821Z,5.50
2022-11-02T19:51:21.356Z,6.32
2022-11-02T19:54:07.167Z,7.88
2022-11-02T19:56:52.788Z,5.60
2022-11-02T19:59:38.948Z,7.35
2022-11-02T20:02:24.902Z,7.13
2022-11-02T20:05:12.989Z,2.47
2022-11-02T20:07:58.874Z,4.40
2022-11-02T20:10:44.590Z,6.13
2022-11-02T20:13:33.216Z,7.20
2022-11-02T20:16:20.327Z,5.68
2022-11-02T20:19:07.200Z,7.50
2022-11-02T20:21:52.842Z,11.68
2022-11-02T20:24:38.491Z,10.68
2022-11-02T20:27:24.389Z,2.85
2022-11-02T20:30:11.219Z,7.82
2022-11-02T20:32:57.243Z,10.75
2022-11-02T20:35:45.177Z,3.83
2022-11-02T20:38:31.689Z,9.88
2022-11-02T20:41:20.909Z,13.27
2022-11-02T20:44:07.597Z,11.88
2022-11-02T20:46:53.665Z,4.20
2022-11-02T20:49:55.206Z,12.55
2022-11-02T20:52:41.238Z,6.63
2022-11-02T20:55:27.218Z,7.80
2022-11-02T20:58:13.435Z,3.58
2022-11-02T21:00:59.613Z,2.60
2022-11-02T21:03:46.117Z,4.55
2022-11-02T21:06:32.382Z,3.55
2022-11-02T21:09:19.445Z,6.13
2022-11-02T21:12:24.060Z,4.72
2022-11-02T21:15:10.610Z,5.32
2022-11-02T21:17:57.337Z,4.32
2022-11-02T21:20:44.195Z,5.25
2022-11-02T21:23:30.749Z,8.13
2022-11-02T21:26:16.845Z,5.50
2022-11-02T21:29:03.245Z,3.63
2022-11-02T21:31:49.716Z,2.88
2022-11-02T21:34:36.026Z,4.32
2022-11-02T21:37:22.308Z,2.13
2022-11-02T21:40:09.142Z,2.88
2022-11-02T21:42:55.665Z,4.30
2022-11-02T21:45:51.970Z,2.92
2022-11-02T21:48:38.834Z,0.82
2022-11-02T21:51:25.402Z,2.33
2022-11-02T21:54:11.624Z,5.25
2022-11-02T21:56:58.450Z,1.27
2022-11-02T21:59:44.667Z,5.32
2022-11-02T22:02:30.257Z,2.70
2022-11-02T22:05:36.083Z,4.05
2022-11-02T22:08:39.995Z,2.08
2022-11-02T22:11:29.545Z,3.53
2022-11-02T22:14:15.217Z,2.95
2022-11-02T22:17:00.552Z,4.93
2022-11-02T22:19:45.816Z,2.97
2022-11-02T22:22:31.223Z,5.85
2022-11-02T22:25:16.605Z,6.95
2022-11-02T22:28:02.448Z,0.95
2022-11-02T22:30:48.132Z,3.10
2022-11-02T22:33:34.108Z,1.63
2022-11-02T22:36:22.864Z,5.22
2022-11-02T22:39:12.068Z,7.97
2022-11-02T22:41:57.533Z,2.60
2022-11-02T22:44:42.887Z,4.20
2022-11-02T22:47:28.247Z,3.50
2022-11-02T22:50:13.819Z,0.52
2022-11-02T22:52:59.563Z,4.82
2022-11-02T22:55:44.991Z,5.03
2022-11-02T22:58:32.968Z,3.85
2022-11-02T23:01:23.274Z,4.72
2022-11-02T23:04:11.002Z,1.30
2022-11-02T23:06:56.591Z,6.88
2022-11-02T23:09:42.029Z,6.05
2022-11-02T23:12:27.234Z,4.03
2022-11-02T23:15:12.729Z,2.95
2022-11-02T23:17:58.042Z,1.77
2022-11-02T23:20:52.443Z,1.20
2022-11-02T23:23:56.315Z,2.53
2022-11-02T23:26:45.808Z,7.65
2022-11-02T23:29:50.847Z,1.50
2022-11-02T23:32:37.163Z,1.63
2022-11-02T23:35:40.986Z,0.63
2022-11-02T23:38:49.506Z,3.05
2022-11-02T23:41:38.671Z,1.02
2022-11-02T23:44:24.316Z,2.00
2022-11-02T23:47:09.979Z,1.10
2022-11-02T23:49:55.653Z,3.30
2022-11-02T23:52:59.669Z,2.58
2022-11-02T23:56:03.752Z,2.45
2022-11-02T23:59:06.485Z,1.85
